Time;durP1;ratioP1;P1;durP2;ratioP2;P2;SDS_P1;SDS_P2;PMS_P1;PMS_P2;Temp;Humidity;BMP_temperature;BMP_pressure;BME280_temperature;BME280_humidity;BME280_pressure;Samples;Min_cycle;Max_cycle;Signal;HPM_P1;HPM_P2
2021/05/03 00:00:18;;;;;;;15.57;8.30;;;2.10;99.90;;;;;;5062706;28;20246;-65
2021/05/03 00:02:46;;;;;;;18.17;9.17;;;2.10;99.90;;;;;;5051988;28;20212;-66
2021/05/03 00:05:21;;;;;;;10.40;7.70;;;2.00;99.90;;;;;;5060542;28;20275;-64
2021/05/03 00:07:48;;;;;;;10.03;7.13;;;1.90;99.90;;;;;;5065678;28;20597;-65
2021/05/03 00:10:16;;;;;;;14.37;7.30;;;1.90;99.90;;;;;;5063360;28;20288;-64
2021/05/03 00:12:43;;;;;;;8.77;7.07;;;1.80;99.90;;;;;;5064790;28;20196;-65
2021/05/03 00:15:14;;;;;;;12.40;7.80;;;1.80;99.90;;;;;;5069270;28;20191;-65
2021/05/03 00:17:41;;;;;;;13.30;7.53;;;1.70;99.90;;;;;;5066683;28;20568;-65
2021/05/03 00:20:12;;;;;;;9.40;7.10;;;1.70;99.90;;;;;;5073042;28;20192;-64
2021/05/03 00:22:39;;;;;;;10.50;7.43;;;1.70;99.90;;;;;;5077261;28;20757;-65
2021/05/03 00:25:07;;;;;;;20.10;9.17;;;1.60;99.90;;;;;;5067765;28;20812;-65
2021/05/03 00:27:35;;;;;;;14.13;8.40;;;1.60;99.90;;;;;;5067623;28;20223;-65
2021/05/03 00:30:03;;;;;;;12.97;8.60;;;1.60;99.90;;;;;;5062249;28;20219;-65
2021/05/03 00:32:31;;;;;;;15.03;9.20;;;1.50;99.90;;;;;;5065594;28;20193;-65
2021/05/03 00:34:58;;;;;;;15.93;8.70;;;1.50;99.90;;;;;;5064094;28;20295;-65
2021/05/03 00:37:26;;;;;;;10.90;7.80;;;1.60;99.90;;;;;;5065934;28;20220;-66
2021/05/03 00:39:53;;;;;;;9.70;7.23;;;1.60;99.90;;;;;;5063992;28;20271;-65
2021/05/03 00:42:20;;;;;;;10.43;6.80;;;1.50;99.90;;;;;;5062606;28;20254;-65
2021/05/03 00:44:50;;;;;;;10.40;7.67;;;1.50;99.90;;;;;;5056769;28;20232;-64
2021/05/03 00:47:18;;;;;;;12.47;7.03;;;1.50;99.90;;;;;;5066711;28;20184;-65
2021/05/03 00:49:48;;;;;;;9.97;7.43;;;1.40;99.90;;;;;;5062096;28;20188;-65
2021/05/03 00:52:15;;;;;;;10.77;6.93;;;1.40;99.90;;;;;;5062151;28;20660;-65
2021/05/03 00:54:42;;;;;;;8.50;7.13;;;1.30;99.90;;;;;;5063729;28;20262;-66
2021/05/03 00:57:10;;;;;;;13.97;8.33;;;1.30;99.90;;;;;;5067528;28;20261;-65
2021/05/03 00:59:38;;;;;;;14.10;7.70;;;1.30;99.90;;;;;;5067377;28;20543;-66
2021/05/03 01:02:06;;;;;;;10.80;7.40;;;1.30;99.90;;;;;;5066670;28;20265;-65
2021/05/03 01:04:33;;;;;;;12.13;7.53;;;1.20;99.90;;;;;;5070752;28;20296;-66
2021/05/03 01:07:01;;;;;;;9.90;7.67;;;1.30;99.90;;;;;;5066222;28;21074;-66
2021/05/03 01:09:28;;;;;;;12.77;8.10;;;1.30;99.90;;;;;;5070086;28;20192;-66
2021/05/03 01:11:56;;;;;;;12.17;7.67;;;1.30;99.90;;;;;;5069460;28;20192;-65
2021/05/03 01:14:23;;;;;;;10.67;7.53;;;1.30;99.90;;;;;;5066420;28;20216;-65
2021/05/03 01:16:50;;;;;;;9.17;7.60;;;1.30;99.90;;;;;;5068419;28;20232;-65
2021/05/03 01:19:20;;;;;;;8.67;7.10;;;1.30;99.90;;;;;;5068962;28;20558;-65
2021/05/03 01:21:49;;;;;;;9.13;7.10;;;1.30;99.90;;;;;;5082112;28;20200;-66
2021/05/03 01:24:17;;;;;;;9.10;7.23;;;1.20;99.90;;;;;;5067477;28;20276;-65
2021/05/03 01:26:45;;;;;;;8.47;6.73;;;1.20;99.90;;;;;;5067462;28;20228;-65
2021/05/03 01:29:14;;;;;;;9.07;6.83;;;1.20;99.90;;;;;;5068394;28;20234;-65
2021/05/03 01:31:46;;;;;;;9.50;7.03;;;1.20;99.90;;;;;;5068310;28;20212;-65
2021/05/03 01:34:14;;;;;;;8.70;6.70;;;1.20;99.90;;;;;;5064716;28;20188;-65
2021/05/03 01:36:43;;;;;;;9.23;6.53;;;1.10;99.90;;;;;;5067769;28;20203;-65
2021/05/03 01:39:13;;;;;;;6.97;6.27;;;1.20;99.90;;;;;;5063911;28;20216;-65
2021/05/03 01:41:42;;;;;;;11.53;7.00;;;1.20;99.90;;;;;;5068009;28;20200;-65
2021/05/03 01:44:11;;;;;;;9.37;6.90;;;1.20;99.90;;;;;;5065183;28;20208;-65
2021/05/03 01:46:39;;;;;;;9.30;6.63;;;1.20;99.90;;;;;;5070037;28;20734;-65
2021/05/03 01:49:08;;;;;;;7.80;5.97;;;1.20;99.90;;;;;;5066726;28;20196;-65
2021/05/03 01:51:37;;;;;;;8.67;6.60;;;1.30;99.90;;;;;;5069366;28;20274;-66
2021/05/03 01:54:06;;;;;;;9.97;6.10;;;1.40;99.90;;;;;;5066745;28;20668;-65
2021/05/03 01:56:35;;;;;;;8.47;6.27;;;1.50;99.90;;;;;;5068169;28;20215;-66
2021/05/03 01:59:05;;;;;;;8.77;6.57;;;1.60;99.90;;;;;;5069191;28;20246;-65
2021/05/03 02:01:32;;;;;;;6.93;6.07;;;1.60;99.90;;;;;;5065021;28;20227;-65
2021/05/03 02:04:01;;;;;;;6.60;6.03;;;1.70;99.90;;;;;;5068044;28;20315;-66
2021/05/03 02:06:30;;;;;;;8.50;6.33;;;1.80;99.90;;;;;;5059053;28;20706;-65
2021/05/03 02:08:57;;;;;;;9.27;6.57;;;1.80;99.90;;;;;;5066009;28;20272;-65
2021/05/03 02:11:25;;;;;;;12.13;6.50;;;1.90;99.90;;;;;;5066917;28;20196;-66
2021/05/03 02:13:53;;;;;;;7.83;6.70;;;2.00;99.90;;;;;;5070349;28;20210;-66
2021/05/03 02:16:20;;;;;;;6.90;6.17;;;2.00;99.90;;;;;;5066130;28;20231;-65
2021/05/03 02:18:48;;;;;;;7.47;6.17;;;2.10;99.90;;;;;;5064497;28;20319;-66
2021/05/03 02:21:15;;;;;;;8.00;6.17;;;2.20;99.90;;;;;;5063681;28;20226;-64
2021/05/03 02:23:45;;;;;;;8.87;5.73;;;2.20;99.90;;;;;;5059049;28;20206;-64
2021/05/03 02:26:15;;;;;;;7.87;5.80;;;2.30;99.90;;;;;;5059670;28;20473;-65
2021/05/03 02:28:42;;;;;;;7.30;5.30;;;2.40;99.90;;;;;;5061918;28;20610;-65
2021/05/03 02:31:12;;;;;;;6.13;5.33;;;2.50;99.90;;;;;;5064630;28;20225;-65
2021/05/03 02:33:40;;;;;;;7.60;5.57;;;2.50;99.90;;;;;;5064364;28;20226;-66
2021/05/03 02:36:10;;;;;;;5.90;5.40;;;2.60;99.90;;;;;;5060218;28;20295;-64
2021/05/03 02:38:37;;;;;;;7.57;5.60;;;2.60;99.90;;;;;;5060023;28;20222;-65
2021/05/03 02:41:08;;;;;;;7.97;5.73;;;2.60;99.90;;;;;;5065918;28;20227;-66
2021/05/03 02:43:35;;;;;;;8.30;5.93;;;2.50;99.90;;;;;;5065471;28;20201;-65
2021/05/03 02:46:02;;;;;;;7.30;5.83;;;2.40;99.90;;;;;;5066288;28;20263;-66
2021/05/03 02:48:35;;;;;;;6.43;5.73;;;2.40;99.90;;;;;;5066724;28;20192;-66
2021/05/03 02:51:03;;;;;;;5.93;5.43;;;2.40;99.90;;;;;;5066371;28;20191;-66
2021/05/03 02:53:30;;;;;;;5.50;5.00;;;2.30;99.90;;;;;;5065223;28;20196;-65
2021/05/03 02:56:01;;;;;;;8.27;6.00;;;2.30;99.90;;;;;;5060013;28;20185;-65
2021/05/03 02:58:28;;;;;;;7.23;5.53;;;2.30;99.90;;;;;;5058915;28;20236;-65
2021/05/03 03:00:55;;;;;;;6.87;6.17;;;2.20;99.90;;;;;;5063246;28;20337;-66
2021/05/03 03:03:23;;;;;;;7.30;6.53;;;2.20;99.90;;;;;;5065244;28;20203;-66
2021/05/03 03:05:51;;;;;;;7.37;6.20;;;2.20;99.90;;;;;;5062800;28;20310;-64
2021/05/03 03:08:18;;;;;;;8.70;6.00;;;2.20;99.90;;;;;;5056762;28;20219;-66
2021/05/03 03:10:46;;;;;;;10.67;6.33;;;2.20;99.90;;;;;;5065772;28;20606;-66
2021/05/03 03:13:16;;;;;;;9.17;6.63;;;2.20;99.90;;;;;;5062215;28;20749;-66
2021/05/03 03:15:44;;;;;;;8.83;6.43;;;2.20;99.90;;;;;;5065220;28;20741;-65
2021/05/03 03:18:11;;;;;;;7.00;6.30;;;2.20;99.90;;;;;;5065764;28;20224;-65
2021/05/03 03:20:38;;;;;;;7.50;6.17;;;2.20;99.90;;;;;;5065678;28;20617;-66
2021/05/03 03:23:07;;;;;;;11.13;6.37;;;2.20;99.90;;;;;;5066928;28;20679;-66
2021/05/03 03:25:35;;;;;;;9.27;6.57;;;2.20;99.90;;;;;;5065348;28;20606;-67
2021/05/03 03:28:02;;;;;;;6.57;5.90;;;2.20;99.90;;;;;;5065848;28;20223;-66
2021/05/03 03:30:35;;;;;;;7.50;6.13;;;2.20;99.90;;;;;;5071036;28;20548;-66
2021/05/03 03:33:02;;;;;;;7.03;6.20;;;2.20;99.90;;;;;;5065566;28;20226;-66
2021/05/03 03:35:29;;;;;;;6.47;5.80;;;2.20;99.90;;;;;;5063867;28;20609;-65
2021/05/03 03:37:57;;;;;;;10.83;6.50;;;2.10;99.90;;;;;;5063780;28;20196;-66
2021/05/03 03:40:25;;;;;;;7.23;5.77;;;2.10;99.90;;;;;;5064561;28;20284;-65
2021/05/03 03:42:52;;;;;;;10.13;6.20;;;2.20;99.90;;;;;;5061230;28;20227;-66
2021/05/03 03:45:20;;;;;;;8.90;6.17;;;2.30;99.90;;;;;;5066801;28;20218;-65
2021/05/03 03:47:47;;;;;;;6.97;6.20;;;2.30;99.90;;;;;;5063711;28;20204;-65
2021/05/03 03:50:15;;;;;;;7.07;5.47;;;2.40;99.90;;;;;;5059112;28;20734;-64
2021/05/03 03:52:46;;;;;;;8.73;6.17;;;2.50;99.90;;;;;;5064313;28;20562;-65
2021/05/03 03:55:14;;;;;;;8.13;6.20;;;2.50;99.90;;;;;;5061128;28;20265;-65
2021/05/03 03:57:42;;;;;;;12.40;6.73;;;2.60;99.90;;;;;;5064713;28;20230;-66
2021/05/03 04:00:10;;;;;;;8.40;6.00;;;2.60;99.90;;;;;;5062717;28;20192;-66
2021/05/03 04:02:38;;;;;;;8.30;6.17;;;2.70;99.90;;;;;;5065405;28;20277;-66
2021/05/03 04:05:17;;;;;;;9.60;6.50;;;2.80;99.90;;;;;;5060598;28;20833;-65
2021/05/03 04:07:49;;;;;;;7.97;6.00;;;2.80;99.90;;;;;;5062740;28;20742;-66
2021/05/03 04:10:30;;;;;;;10.10;6.53;;;2.80;99.90;;;;;;5062105;28;20200;-65
2021/05/03 04:21:39;;;;;;;11.50;7.03;;;3.10;99.90;;;;;;5024159;28;20262;-65
2021/05/03 04:24:12;;;;;;;10.90;6.60;;;3.10;99.90;;;;;;5022860;28;20240;-66
2021/05/03 04:26:39;;;;;;;11.67;6.93;;;3.10;99.90;;;;;;5052122;28;20208;-66
2021/05/03 04:29:07;;;;;;;8.83;7.00;;;3.00;99.90;;;;;;5065681;28;20287;-65
2021/05/03 04:31:35;;;;;;;13.20;7.43;;;2.90;99.90;;;;;;5077513;28;20203;-66
2021/05/03 04:34:02;;;;;;;8.57;7.07;;;2.80;99.90;;;;;;5069996;28;20241;-66
2021/05/03 04:36:30;;;;;;;10.53;7.80;;;2.80;99.90;;;;;;5068153;28;20223;-66
2021/05/03 04:38:57;;;;;;;13.37;8.30;;;2.70;99.90;;;;;;5069652;28;20230;-66
2021/05/03 04:41:24;;;;;;;13.07;8.50;;;2.70;99.90;;;;;;5066907;28;20219;-66
2021/05/03 04:43:52;;;;;;;13.23;8.30;;;2.70;99.90;;;;;;5067613;28;20216;-66
2021/05/03 04:46:20;;;;;;;10.47;8.40;;;2.70;99.90;;;;;;5067728;28;20287;-66
2021/05/03 04:48:49;;;;;;;16.33;8.80;;;2.70;99.90;;;;;;5069283;28;20287;-66
2021/05/03 04:51:19;;;;;;;12.37;8.83;;;2.80;99.90;;;;;;5067724;28;20196;-66
2021/05/03 04:53:47;;;;;;;15.30;10.00;;;2.90;99.90;;;;;;5070888;28;20196;-65
2021/05/03 04:56:14;;;;;;;13.63;9.30;;;3.00;99.90;;;;;;5068884;28;20628;-66
2021/05/03 04:58:41;;;;;;;20.77;9.87;;;3.10;99.90;;;;;;5067910;28;20258;-65
2021/05/03 05:01:09;;;;;;;17.03;10.80;;;3.10;99.90;;;;;;5067654;28;20219;-66
2021/05/03 05:03:37;;;;;;;15.40;10.20;;;3.10;99.90;;;;;;5070176;28;20261;-66
2021/05/03 05:06:05;;;;;;;16.10;10.30;;;3.10;99.90;;;;;;5069319;28;20184;-65
2021/05/03 05:08:32;;;;;;;17.97;10.40;;;3.00;99.90;;;;;;5066209;28;20188;-65
2021/05/03 05:10:59;;;;;;;14.80;9.43;;;3.00;99.90;;;;;;5069339;28;20228;-65
2021/05/03 05:13:27;;;;;;;15.63;10.30;;;2.90;99.90;;;;;;5069894;28;20192;-65
2021/05/03 05:15:55;;;;;;;17.17;10.23;;;3.00;99.90;;;;;;5073982;28;20531;-65
2021/05/03 05:18:26;;;;;;;17.80;10.93;;;3.00;99.90;;;;;;5058456;28;20228;-66
2021/05/03 05:20:54;;;;;;;22.13;10.67;;;3.10;99.90;;;;;;5068352;28;20311;-66
2021/05/03 05:23:22;;;;;;;18.93;11.37;;;3.30;99.90;;;;;;5068062;28;20254;-66
2021/05/03 05:25:49;;;;;;;19.43;11.97;;;3.60;99.90;;;;;;5068808;28;20192;-66
2021/05/03 05:28:17;;;;;;;22.77;12.03;;;3.80;99.90;;;;;;5067855;28;20227;-65
2021/05/03 05:30:44;;;;;;;19.57;12.00;;;4.10;99.90;;;;;;5067136;28;20223;-66
2021/05/03 05:33:11;;;;;;;20.50;11.80;;;4.40;99.90;;;;;;5068254;28;20273;-66
2021/05/03 05:35:39;;;;;;;18.87;12.87;;;4.80;99.90;;;;;;5064880;28;20192;-66
2021/05/03 05:38:07;;;;;;;22.13;12.60;;;5.00;99.90;;;;;;5066422;28;20200;-66
2021/05/03 05:40:34;;;;;;;22.40;12.67;;;5.20;99.90;;;;;;5065625;28;20211;-65
2021/05/03 05:43:05;;;;;;;20.17;12.73;;;5.30;99.90;;;;;;5065001;28;20223;-66
2021/05/03 05:45:33;;;;;;;18.27;12.43;;;5.50;99.90;;;;;;5062028;28;20243;-65
2021/05/03 05:48:00;;;;;;;17.37;12.57;;;5.70;99.90;;;;;;5063353;28;20199;-66
2021/05/03 05:50:27;;;;;;;18.80;12.83;;;5.80;99.90;;;;;;5067291;28;20200;-65
2021/05/03 05:52:55;;;;;;;18.87;13.07;;;5.90;99.90;;;;;;5064813;28;20204;-66
2021/05/03 05:55:23;;;;;;;22.03;13.87;;;6.00;99.90;;;;;;5061291;28;20189;-66
2021/05/03 05:57:51;;;;;;;26.13;14.17;;;6.10;99.90;;;;;;5063206;28;20228;-66
2021/05/03 06:00:19;;;;;;;22.23;13.77;;;6.20;99.90;;;;;;5062807;28;20189;-66
2021/05/03 06:02:46;;;;;;;24.67;14.60;;;6.30;99.90;;;;;;5057682;28;20192;-66
2021/05/03 06:05:15;;;;;;;23.53;14.30;;;6.50;99.90;;;;;;5062233;28;20218;-66
2021/05/03 06:07:42;;;;;;;23.03;14.43;;;6.60;99.90;;;;;;5067573;28;20196;-67
2021/05/03 06:10:12;;;;;;;24.70;15.07;;;6.70;99.90;;;;;;5069153;28;20184;-65
2021/05/03 06:12:40;;;;;;;24.13;15.43;;;6.80;99.90;;;;;;5062780;28;20208;-65
2021/05/03 06:15:08;;;;;;;26.60;16.60;;;6.90;99.90;;;;;;5068852;28;20273;-66
2021/05/03 06:17:36;;;;;;;25.23;16.73;;;7.00;99.90;;;;;;5062549;28;20645;-66
2021/05/03 06:20:05;;;;;;;22.03;14.90;;;7.10;99.90;;;;;;5065003;28;20180;-66
2021/05/03 06:22:34;;;;;;;21.23;15.07;;;7.20;99.90;;;;;;5064002;28;20660;-66
2021/05/03 06:25:02;;;;;;;25.43;15.90;;;7.30;99.90;;;;;;5068929;28;20246;-66
2021/05/03 06:27:32;;;;;;;25.20;16.07;;;7.40;99.90;;;;;;5067829;28;20197;-66
2021/05/03 06:30:00;;;;;;;24.50;15.90;;;7.40;99.90;;;;;;5066509;28;20248;-66
2021/05/03 06:32:28;;;;;;;26.53;15.53;;;7.60;99.90;;;;;;5066866;28;20261;-66
2021/05/03 06:34:56;;;;;;;25.27;16.13;;;7.80;99.90;;;;;;5070172;28;20204;-66
2021/05/03 06:37:23;;;;;;;22.53;15.67;;;8.20;99.90;;;;;;5060199;28;20624;-66
2021/05/03 06:39:50;;;;;;;23.97;16.53;;;8.40;99.90;;;;;;5058760;28;20283;-66
2021/05/03 06:42:18;;;;;;;23.67;16.83;;;8.60;99.90;;;;;;5064911;28;20188;-66
2021/05/03 06:44:46;;;;;;;24.60;16.87;;;8.90;99.90;;;;;;5060014;28;20221;-66
2021/05/03 06:47:15;;;;;;;25.67;16.87;;;9.20;99.90;;;;;;5066240;28;20208;-66
2021/05/03 06:49:43;;;;;;;23.50;16.87;;;9.60;99.90;;;;;;5063836;28;20196;-66
2021/05/03 06:52:13;;;;;;;25.97;17.43;;;9.50;99.90;;;;;;5065762;28;20595;-66
2021/05/03 06:54:41;;;;;;;26.70;16.73;;;9.60;99.90;;;;;;5068375;28;20219;-66
2021/05/03 06:57:09;;;;;;;27.50;17.57;;;9.90;99.90;;;;;;5062560;28;20741;-66
2021/05/03 06:59:36;;;;;;;23.23;17.67;;;9.90;99.90;;;;;;5066362;28;20203;-66
2021/05/03 07:02:05;;;;;;;29.93;17.50;;;10.00;99.90;;;;;;5070801;28;20231;-67
2021/05/03 07:04:33;;;;;;;22.40;17.17;;;10.30;99.90;;;;;;5063059;28;20215;-67
2021/05/03 07:07:01;;;;;;;24.70;17.57;;;10.60;99.90;;;;;;5066010;28;20249;-65
2021/05/03 07:09:28;;;;;;;26.27;17.80;;;10.80;99.90;;;;;;5063977;28;20196;-67
2021/05/03 07:11:56;;;;;;;22.73;16.93;;;11.10;99.90;;;;;;5063006;28;20231;-66
2021/05/03 07:14:24;;;;;;;24.80;17.00;;;11.30;99.90;;;;;;5066621;28;20273;-65
2021/05/03 07:16:51;;;;;;;27.77;18.17;;;11.60;99.90;;;;;;5066110;28;20290;-65
2021/05/03 07:19:19;;;;;;;27.07;17.47;;;11.90;99.90;;;;;;5067759;28;20274;-65
2021/05/03 07:21:47;;;;;;;26.73;17.53;;;11.90;99.90;;;;;;5065552;28;20203;-65
2021/05/03 07:24:15;;;;;;;24.63;17.50;;;12.20;99.90;;;;;;5067249;28;20214;-65
2021/05/03 07:26:43;;;;;;;25.63;18.87;;;12.50;99.90;;;;;;5069143;28;20196;-65
2021/05/03 07:29:11;;;;;;;23.47;17.83;;;12.50;99.90;;;;;;5063330;28;20253;-65
2021/05/03 07:31:38;;;;;;;23.40;17.63;;;12.30;99.90;;;;;;5063255;28;20571;-65
2021/05/03 07:34:06;;;;;;;28.67;18.03;;;12.40;99.90;;;;;;5063033;28;20189;-66
2021/05/03 07:36:33;;;;;;;26.33;18.17;;;12.30;99.90;;;;;;5060278;28;20192;-65
2021/05/03 07:39:01;;;;;;;24.10;17.40;;;12.50;99.90;;;;;;5062844;28;20276;-65
2021/05/03 07:41:29;;;;;;;25.27;18.10;;;12.90;99.90;;;;;;5063266;28;20192;-66
2021/05/03 07:43:57;;;;;;;21.57;17.93;;;13.10;99.90;;;;;;5066551;28;20208;-65
2021/05/03 07:46:25;;;;;;;26.03;17.97;;;13.00;99.90;;;;;;5066354;28;20200;-66
2021/05/03 07:48:53;;;;;;;24.13;17.70;;;13.10;99.90;;;;;;5070518;28;20223;-67
2021/05/03 07:51:21;;;;;;;22.37;17.60;;;13.50;99.90;;;;;;5063769;28;20220;-68
2021/05/03 07:53:48;;;;;;;23.83;17.57;;;13.60;99.90;;;;;;5069493;28;20188;-65
2021/05/03 07:56:17;;;;;;;23.87;18.10;;;13.90;99.90;;;;;;5070702;28;20249;-68
2021/05/03 07:58:46;;;;;;;22.97;17.27;;;14.20;99.90;;;;;;5066178;28;20199;-67
2021/05/03 08:01:14;;;;;;;25.70;17.83;;;14.00;99.90;;;;;;5068607;28;20263;-68
2021/05/03 08:03:43;;;;;;;23.13;17.40;;;13.90;99.90;;;;;;5068687;28;20191;-68
2021/05/03 08:06:13;;;;;;;24.73;16.83;;;13.90;99.90;;;;;;5070674;28;20200;-68
2021/05/03 08:08:41;;;;;;;19.80;16.77;;;13.70;99.90;;;;;;5068224;28;20192;-68
2021/05/03 08:11:08;;;;;;;22.30;17.03;;;13.80;99.90;;;;;;5071535;28;20188;-68
2021/05/03 08:13:37;;;;;;;20.23;16.83;;;14.10;99.90;;;;;;5069009;28;20184;-66
2021/05/03 08:16:06;;;;;;;19.10;16.20;;;14.60;99.90;;;;;;5067703;28;20246;-65
2021/05/03 08:18:34;;;;;;;21.57;16.13;;;15.10;99.90;;;;;;5069948;28;20354;-65
2021/05/03 08:21:02;;;;;;;23.93;16.57;;;15.00;99.90;;;;;;5069467;28;20222;-68
2021/05/03 08:23:29;;;;;;;17.40;15.13;;;14.80;99.90;;;;;;5069811;28;20199;-67
2021/05/03 08:25:57;;;;;;;21.90;16.70;;;14.70;99.90;;;;;;5070679;28;20192;-66
2021/05/03 08:28:25;;;;;;;20.67;16.57;;;15.00;99.90;;;;;;5070987;28;20563;-65
2021/05/03 08:30:54;;;;;;;17.80;14.23;;;15.30;99.90;;;;;;5071381;28;20244;-67
2021/05/03 08:33:21;;;;;;;20.20;15.00;;;15.20;99.90;;;;;;5053481;28;20201;-65
2021/05/03 08:35:49;;;;;;;18.83;15.37;;;15.20;99.90;;;;;;5066116;28;20294;-68
2021/05/03 08:38:18;;;;;;;14.97;13.13;;;15.60;99.90;;;;;;5065957;28;20858;-65
2021/05/03 08:40:46;;;;;;;18.13;13.63;;;15.90;99.90;;;;;;5068151;28;20192;-66
2021/05/03 08:43:13;;;;;;;18.73;12.87;;;16.00;99.90;;;;;;5070166;28;20246;-65
2021/05/03 08:45:41;;;;;;;16.10;13.23;;;15.80;99.90;;;;;;5068116;28;20219;-65
2021/05/03 08:48:17;;;;;;;17.17;12.13;;;15.60;99.90;;;;;;5070086;28;20204;-68
2021/05/03 08:50:53;;;;;;;15.90;13.10;;;15.40;99.90;;;;;;5068058;28;20822;-68
2021/05/03 08:53:26;;;;;;;15.77;13.30;;;15.30;99.90;;;;;;5067871;28;20282;-67
2021/05/03 08:55:53;;;;;;;15.83;12.07;;;15.20;99.90;;;;;;5082680;28;20192;-68
2021/05/03 08:58:21;;;;;;;17.87;13.00;;;15.10;99.90;;;;;;5068663;28;20704;-68
2021/05/03 09:00:49;;;;;;;16.37;12.83;;;15.50;99.90;;;;;;5067790;28;20251;-65
2021/05/03 09:03:18;;;;;;;14.33;10.67;;;16.10;99.90;;;;;;5068605;28;20279;-65
2021/05/03 09:05:45;;;;;;;11.60;8.80;;;16.60;99.90;;;;;;5064107;28;21555;-66
2021/05/03 09:08:24;;;;;;;13.57;9.50;;;16.70;99.90;;;;;;5067402;28;20193;-65
2021/05/03 09:10:52;;;;;;;10.13;8.13;;;16.80;99.90;;;;;;5066288;28;20196;-65
2021/05/03 09:13:27;;;;;;;8.80;7.23;;;17.00;99.90;;;;;;5066893;28;20265;-66
2021/05/03 09:16:14;;;;;;;7.67;6.87;;;17.20;99.80;;;;;;5066706;28;20191;-66
2021/05/03 09:18:43;;;;;;;9.67;7.67;;;17.70;99.90;;;;;;5066206;28;21444;-64
2021/05/03 09:21:21;;;;;;;10.80;7.27;;;18.30;99.90;;;;;;5063809;28;20196;-65
2021/05/03 09:24:02;;;;;;;13.97;10.10;;;18.60;99.30;;;;;;5063171;28;20196;-65
2021/05/03 09:26:39;;;;;;;13.13;7.87;;;18.20;99.90;;;;;;5062365;28;20195;-65
2021/05/03 09:29:34;;;;;;;8.57;7.50;;;18.40;98.50;;;;;;5064038;28;20196;-66
2021/05/03 09:32:07;;;;;;;10.50;7.23;;;18.00;99.00;;;;;;5067488;28;20203;-65
2021/05/03 09:34:38;;;;;;;6.03;5.53;;;18.00;99.70;;;;;;5062381;28;20183;-65
2021/05/03 09:37:30;;;;;;;9.47;6.90;;;18.00;97.00;;;;;;5062416;28;20254;-66
2021/05/03 09:40:02;;;;;;;7.23;6.53;;;17.50;97.40;;;;;;5069398;28;20589;-65
2021/05/03 09:42:52;;;;;;;7.17;6.50;;;17.00;96.80;;;;;;5061838;28;20274;-65
2021/05/03 09:45:21;;;;;;;9.57;7.50;;;17.00;98.10;;;;;;5067722;28;20618;-65
2021/05/03 09:47:50;;;;;;;7.23;6.50;;;16.90;97.10;;;;;;5067669;28;20289;-65
2021/05/03 09:50:22;;;;;;;10.40;7.17;;;17.00;96.80;;;;;;5063844;28;20200;-65
2021/05/03 09:53:07;;;;;;;9.70;7.03;;;17.60;96.50;;;;;;5065599;28;20219;-65
2021/05/03 09:55:40;;;;;;;7.50;6.80;;;17.80;96.10;;;;;;5066779;28;20290;-65
2021/05/03 09:58:12;;;;;;;7.60;6.80;;;17.80;96.30;;;;;;5066886;28;20651;-65
2021/05/03 10:00:43;;;;;;;7.17;6.47;;;17.60;95.90;;;;;;5064365;28;20207;-68
2021/05/03 10:03:35;;;;;;;7.90;7.13;;;17.40;95.70;;;;;;5064912;28;20188;-67
2021/05/03 10:06:06;;;;;;;8.07;7.17;;;17.60;96.00;;;;;;5063188;28;20227;-66
2021/05/03 10:08:34;;;;;;;9.03;8.17;;;17.50;98.90;;;;;;5065120;28;20196;-67
2021/05/03 10:11:04;;;;;;;8.63;7.77;;;17.70;97.40;;;;;;5064297;28;20289;-67
2021/05/03 10:13:33;;;;;;;8.60;7.80;;;18.00;97.00;;;;;;5079147;28;20204;-66
2021/05/03 10:16:01;;;;;;;8.37;7.53;;;17.70;97.50;;;;;;5069686;28;20547;-67
2021/05/03 10:18:31;;;;;;;9.73;8.53;;;17.90;97.00;;;;;;5065390;28;20220;-67
2021/05/03 10:20:59;;;;;;;9.10;8.20;;;17.90;96.30;;;;;;5066538;28;20279;-67
2021/05/03 10:23:29;;;;;;;9.80;8.20;;;17.40;95.90;;;;;;5064918;28;20721;-67
2021/05/03 10:25:58;;;;;;;9.60;8.10;;;17.30;97.70;;;;;;5061001;28;20220;-67
2021/05/03 10:28:27;;;;;;;9.13;7.53;;;17.60;98.20;;;;;;5065817;28;20184;-66
2021/05/03 10:30:57;;;;;;;7.73;7.03;;;17.70;95.90;;;;;;5065927;28;20592;-66
2021/05/03 10:33:35;;;;;;;7.70;7.00;;;17.70;95.90;;;;;;5061380;28;20743;-66
2021/05/03 10:36:03;;;;;;;8.53;7.67;;;17.40;96.00;;;;;;5067115;28;20679;-67
2021/05/03 10:38:36;;;;;;;7.77;7.00;;;17.20;95.60;;;;;;5066326;28;20218;-66
2021/05/03 10:41:23;;;;;;;8.23;7.47;;;17.10;95.50;;;;;;5064987;28;20191;-66
2021/05/03 10:43:51;;;;;;;8.07;7.27;;;17.20;96.90;;;;;;5063734;28;20655;-67
2021/05/03 10:49:37;;;;;;;10.03;7.30;;;17.20;96.50;;;;;;5064368;28;20231;-67
2021/05/03 10:52:06;;;;;;;8.20;7.40;;;17.50;97.70;;;;;;5060419;28;20584;-67
2021/05/03 10:54:51;;;;;;;6.90;6.20;;;17.80;95.60;;;;;;5074201;28;20184;-66
2021/05/03 10:57:37;;;;;;;10.00;8.30;;;17.50;96.00;;;;;;5066162;28;20195;-67
2021/05/03 11:00:32;;;;;;;9.60;6.87;;;17.80;95.20;;;;;;5063352;28;20192;-67
2021/05/03 11:03:00;;;;;;;9.93;6.87;;;18.50;95.80;;;;;;5064362;28;20192;-67
2021/05/03 11:05:28;;;;;;;8.53;6.77;;;18.70;94.00;;;;;;5068736;28;20204;-66
2021/05/03 11:08:32;;;;;;;7.53;6.53;;;18.10;94.50;;;;;;5066283;28;20192;-66
2021/05/03 11:11:11;;;;;;;7.57;6.83;;;18.20;95.50;;;;;;5061620;28;20196;-66
2021/05/03 11:13:46;;;;;;;6.67;5.90;;;18.40;95.30;;;;;;5061420;28;20226;-67
2021/05/03 11:16:44;;;;;;;7.17;5.87;;;18.40;94.80;;;;;;5068329;28;20192;-66
2021/05/03 11:19:34;;;;;;;5.63;5.30;;;17.90;93.40;;;;;;5062087;28;20214;-66
2021/05/03 11:22:03;;;;;;;5.53;4.83;;;17.60;94.90;;;;;;5063030;28;20199;-66
2021/05/03 11:24:45;;;;;;;6.70;6.10;;;17.60;93.70;;;;;;5066860;28;20218;-66
2021/05/03 11:27:19;;;;;;;6.33;5.83;;;17.50;93.90;;;;;;5062690;28;20231;-66
2021/05/03 11:29:50;;;;;;;6.93;6.33;;;17.50;95.30;;;;;;5069405;28;20257;-66
2021/05/03 11:32:17;;;;;;;7.10;6.50;;;17.30;92.90;;;;;;5066361;28;20291;-66
2021/05/03 11:34:54;;;;;;;10.67;6.43;;;17.40;94.80;;;;;;5065360;28;20195;-66
2021/05/03 11:37:31;;;;;;;9.00;6.33;;;17.70;94.50;;;;;;5064782;28;20247;-66
2021/05/03 11:40:05;;;;;;;7.30;6.70;;;17.30;93.70;;;;;;5066887;28;20196;-65
2021/05/03 11:45:27;;;;;;;7.63;6.97;;;16.80;95.60;;;;;;5054509;28;20216;-66
2021/05/03 11:47:55;;;;;;;9.13;7.37;;;17.10;94.60;;;;;;5058412;28;20202;-66
2021/05/03 11:50:24;;;;;;;7.30;6.60;;;17.10;94.10;;;;;;5065355;28;20196;-66
2021/05/03 11:52:52;;;;;;;8.17;7.40;;;17.10;94.30;;;;;;5061857;28;20252;-66
2021/05/03 11:55:22;;;;;;;11.27;6.93;;;16.80;94.00;;;;;;5063861;28;20192;-66
2021/05/03 11:57:51;;;;;;;7.20;6.53;;;16.50;94.40;;;;;;5061073;28;20189;-66
2021/05/03 12:00:21;;;;;;;8.47;7.20;;;16.60;96.30;;;;;;5063193;28;20609;-66
2021/05/03 12:03:00;;;;;;;7.67;6.90;;;17.00;95.10;;;;;;5064350;28;20645;-65
2021/05/03 12:05:27;;;;;;;7.83;7.17;;;17.00;95.70;;;;;;5066197;28;20195;-65
2021/05/03 12:07:55;;;;;;;7.77;7.07;;;17.10;95.30;;;;;;5066213;28;20196;-65
2021/05/03 12:10:23;;;;;;;11.70;7.73;;;17.20;95.00;;;;;;5067067;28;20200;-65
2021/05/03 12:12:53;;;;;;;8.23;7.30;;;17.00;95.70;;;;;;5063037;28;20275;-64
2021/05/03 12:15:22;;;;;;;8.53;7.07;;;16.60;95.40;;;;;;5057794;28;20223;-64
2021/05/03 12:17:50;;;;;;;7.20;6.50;;;16.60;95.40;;;;;;5061884;28;20289;-64
2021/05/03 12:20:19;;;;;;;7.93;7.10;;;16.20;94.70;;;;;;5066551;28;20203;-65
2021/05/03 12:22:56;;;;;;;9.87;7.10;;;15.80;95.60;;;;;;5062293;28;20200;-64
2021/05/03 12:25:25;;;;;;;7.80;7.00;;;15.90;95.70;;;;;;5064700;28;20273;-64
2021/05/03 12:27:53;;;;;;;7.50;6.80;;;16.10;95.30;;;;;;5064560;28;20226;-64
2021/05/03 12:30:23;;;;;;;7.47;6.27;;;16.50;95.70;;;;;;5064223;28;20609;-65
2021/05/03 12:32:51;;;;;;;7.63;6.90;;;16.50;95.10;;;;;;5065720;28;20204;-64
2021/05/03 12:35:22;;;;;;;7.13;6.43;;;16.30;94.40;;;;;;5064179;28;20184;-64
2021/05/03 12:37:49;;;;;;;8.23;7.43;;;15.90;95.10;;;;;;5063102;28;20196;-64
2021/05/03 12:40:18;;;;;;;9.13;7.30;;;15.50;96.20;;;;;;5066024;28;20275;-64
2021/05/03 12:42:47;;;;;;;8.60;7.10;;;15.40;96.20;;;;;;5066142;28;20254;-66
2021/05/03 12:45:36;;;;;;;7.30;6.23;;;15.50;96.10;;;;;;5069234;28;20208;-65
2021/05/03 12:53:58;;;;;;;7.40;6.57;;;16.60;95.00;;;;;;5040896;28;20661;-64
2021/05/03 12:56:32;;;;;;;13.37;6.60;;;16.30;94.80;;;;;;5067836;28;20297;-64
2021/05/03 12:59:08;;;;;;;7.07;6.37;;;15.90;94.80;;;;;;5069234;28;20206;-64
2021/05/03 13:01:47;;;;;;;7.10;6.40;;;16.10;95.30;;;;;;5069087;28;20219;-65
2021/05/03 13:04:49;;;;;;;7.80;6.10;;;16.20;94.80;;;;;;5069200;28;20770;-64
2021/05/03 13:10:20;;;;;;;7.30;6.47;;;16.50;95.30;;;;;;5066716;28;20659;-65
2021/05/03 13:24:40;;;;;;;5.90;5.50;;;17.40;95.00;;;;;;5068170;28;20222;-65
2021/05/03 13:30:01;;;;;;;7.03;6.37;;;17.30;93.50;;;;;;5068619;28;20675;-65
2021/05/03 13:32:31;;;;;;;6.67;6.07;;;17.00;94.40;;;;;;5062316;28;20321;-65
2021/05/03 13:34:59;;;;;;;7.00;6.33;;;17.10;94.20;;;;;;5065951;28;20647;-65